createdAt,value
2022-08-08T00:00:55.782Z,2.20
2022-08-08T00:02:33.252Z,3.07
2022-08-08T00:06:00.826Z,2.40
2022-08-08T00:08:32.552Z,3.33
2022-08-08T00:11:46.823Z,2.53
2022-08-08T00:15:00.793Z,3.63
2022-08-08T00:18:01.932Z,2.33
2022-08-08T00:20:49.517Z,3.10
2022-08-08T00:23:43.334Z,3.07
2022-08-08T00:26:29.109Z,6.10
2022-08-08T00:29:08.043Z,7.20
2022-08-08T00:32:29.239Z,2.67
2022-08-08T00:34:51.750Z,3.50
2022-08-08T00:37:47.332Z,2.90
2022-08-08T00:41:07.414Z,3.80
2022-08-08T00:43:40.875Z,3.20
2022-08-08T00:46:57.399Z,4.70
2022-08-08T00:49:50.383Z,3.40
2022-08-08T00:52:45.552Z,4.10
2022-08-08T00:55:35.899Z,3.00
2022-08-08T00:58:30.751Z,3.23
2022-08-08T01:01:37.810Z,3.30
2022-08-08T01:04:17.476Z,5.03
2022-08-08T01:07:01.374Z,2.90
2022-08-08T01:09:59.379Z,3.13
2022-08-08T01:12:39.280Z,2.90
2022-08-08T01:15:26.111Z,4.17
2022-08-08T01:18:16.348Z,7.23
2022-08-08T01:22:09.823Z,3.20
2022-08-08T01:24:40.628Z,3.30
2022-08-08T01:27:16.146Z,5.70
2022-08-08T01:30:11.083Z,3.40
2022-08-08T01:33:23.329Z,3.97
2022-08-08T01:36:05.906Z,4.60
2022-08-08T01:38:51.351Z,6.00
2022-08-08T01:41:22.780Z,4.70
2022-08-08T01:44:05.975Z,4.50
2022-08-08T01:48:14.413Z,6.90
2022-08-08T01:50:37.886Z,4.70
2022-08-08T01:55:15.878Z,4.27
2022-08-08T01:57:00.777Z,4.03
2022-08-08T02:00:02.028Z,3.63
2022-08-08T02:02:48.621Z,4.10
2022-08-08T02:05:23.292Z,4.03
2022-08-08T02:08:10.523Z,4.63
2022-08-08T02:10:46.152Z,3.80
2022-08-08T02:13:54.379Z,5.40
2022-08-08T02:16:20.973Z,3.87
2022-08-08T02:19:57.923Z,4.40
2022-08-08T02:22:28.215Z,5.60
2022-08-08T02:25:21.669Z,5.17
2022-08-08T02:28:08.539Z,5.83
2022-08-08T02:31:43.624Z,5.10
2022-08-08T02:34:15.039Z,4.77
2022-08-08T02:37:52.815Z,4.90
2022-08-08T02:40:37.165Z,4.47
2022-08-08T02:44:42.833Z,5.27
2022-08-08T02:46:58.524Z,5.83
2022-08-08T02:49:47.733Z,5.80
2022-08-08T02:52:34.954Z,6.27
2022-08-08T02:55:19.599Z,6.77
2022-08-08T02:58:26.591Z,6.60
2022-08-08T03:00:59.810Z,7.00
2022-08-08T03:05:02.647Z,7.67
2022-08-08T03:06:55.701Z,6.80
2022-08-08T03:09:47.053Z,8.33
2022-08-08T03:12:35.994Z,6.50
2022-08-08T03:15:59.072Z,6.97
2022-08-08T03:18:44.061Z,6.33
2022-08-08T03:21:14.525Z,6.47
2022-08-08T03:23:57.305Z,6.23
2022-08-08T03:26:32.532Z,6.90
2022-08-08T03:29:17.057Z,7.40
2022-08-08T03:32:09.168Z,6.00
2022-08-08T03:34:40.037Z,7.30
2022-08-08T03:37:59.505Z,6.17
2022-08-08T03:40:02.094Z,6.50
2022-08-08T03:42:31.252Z,6.50
2022-08-08T03:44:58.600Z,5.03
2022-08-08T03:47:25.856Z,5.90
2022-08-08T03:50:20.011Z,5.53
2022-08-08T03:52:47.191Z,5.43
2022-08-08T03:55:56.313Z,5.60
2022-08-08T03:58:30.635Z,4.60
2022-08-08T04:01:01.726Z,6.00
2022-08-08T04:03:58.388Z,5.83
2022-08-08T04:06:23.146Z,8.30
2022-08-08T04:08:49.705Z,5.77
2022-08-08T04:11:17.304Z,6.33
2022-08-08T04:14:03.170Z,5.60
2022-08-08T04:16:40.531Z,5.43
2022-08-08T04:19:20.804Z,6.17
2022-08-08T04:21:51.051Z,5.57
2022-08-08T04:24:28.699Z,5.23
2022-08-08T04:26:58.173Z,5.70
2022-08-08T04:29:25.841Z,5.70
2022-08-08T04:31:58.513Z,5.63
2022-08-08T04:34:29.040Z,7.67
2022-08-08T04:36:59.296Z,5.00
2022-08-08T04:40:05.962Z,5.90
2022-08-08T04:42:15.869Z,5.47
2022-08-08T04:44:47.712Z,10.73
2022-08-08T04:47:14.978Z,5.30
2022-08-08T04:50:00.602Z,6.67
2022-08-08T04:52:33.847Z,5.63
2022-08-08T04:55:02.454Z,5.07
2022-08-08T04:57:31.331Z,5.97
2022-08-08T05:00:00.929Z,5.87
2022-08-08T05:02:31.168Z,5.13
2022-08-08T05:04:59.361Z,5.23
2022-08-08T05:07:27.058Z,4.70
2022-08-08T05:10:04.812Z,7.83
2022-08-08T05:12:36.770Z,8.47
2022-08-08T05:15:13.691Z,6.80
2022-08-08T05:17:54.228Z,5.10
2022-08-08T05:20:21.303Z,5.93
2022-08-08T05:22:51.207Z,5.90
2022-08-08T05:25:18.242Z,6.93
2022-08-08T05:27:47.887Z,6.63
2022-08-08T05:30:15.142Z,4.93
2022-08-08T05:32:42.552Z,6.07
2022-08-08T05:35:09.876Z,6.80
2022-08-08T05:37:53.490Z,6.13
2022-08-08T05:40:28.157Z,6.07
2022-08-08T05:43:01.655Z,5.90
2022-08-08T05:45:31.346Z,5.80
2022-08-08T05:48:09.834Z,13.23
2022-08-08T05:50:36.824Z,8.80
2022-08-08T05:53:06.147Z,7.07
2022-08-08T05:56:09.783Z,8.30
2022-08-08T05:58:57.567Z,8.60
2022-08-08T06:01:55.493Z,7.50
2022-08-08T06:04:22.691Z,9.43
2022-08-08T06:06:56.422Z,9.37
2022-08-08T06:10:00.618Z,10.37
2022-08-08T06:12:30.803Z,11.87
2022-08-08T06:15:03.223Z,8.97
2022-08-08T06:17:50.923Z,9.70
2022-08-08T06:20:19.683Z,13.10
2022-08-08T06:22:49.324Z,11.33
2022-08-08T06:25:16.002Z,9.20
2022-08-08T06:27:48.426Z,8.00
2022-08-08T06:30:26.133Z,9.47
2022-08-08T06:32:57.391Z,12.07
2022-08-08T06:36:04.083Z,11.50
2022-08-08T06:38:19.694Z,8.23
2022-08-08T06:40:53.718Z,8.03
2022-08-08T06:43:33.696Z,10.07
2022-08-08T06:46:01.885Z,10.23
2022-08-08T06:48:29.304Z,10.50
2022-08-08T06:50:57.536Z,8.50
2022-08-08T06:53:25.708Z,10.57
2022-08-08T06:56:08.703Z,12.73
2022-08-08T06:58:35.860Z,9.70
2022-08-08T07:01:11.630Z,9.23
2022-08-08T07:04:37.758Z,10.37
2022-08-08T07:07:00.642Z,10.40
2022-08-08T07:09:41.916Z,9.70
2022-08-08T07:12:43.044Z,8.87
2022-08-08T07:15:31.708Z,8.40
2022-08-08T07:18:36.940Z,9.97
2022-08-08T07:20:54.649Z,8.67
2022-08-08T07:24:01.898Z,10.30
2022-08-08T07:26:35.109Z,11.33
2022-08-08T07:29:05.393Z,11.50
2022-08-08T07:31:36.068Z,8.73
2022-08-08T07:34:09.269Z,9.20
2022-08-08T07:36:47.998Z,7.63
2022-08-08T07:39:18.960Z,7.63
2022-08-08T07:42:04.232Z,8.70
2022-08-08T07:44:37.304Z,9.20
2022-08-08T07:47:07.090Z,18.43
2022-08-08T07:49:34.044Z,7.77
2022-08-08T07:52:01.729Z,7.43
2022-08-08T07:54:34.988Z,9.83
2022-08-08T07:57:17.153Z,10.00
2022-08-08T07:59:48.646Z,7.90
2022-08-08T08:02:34.637Z,8.63
2022-08-08T08:05:15.040Z,8.00
2022-08-08T08:07:45.781Z,7.77
2022-08-08T08:10:13.375Z,7.33
2022-08-08T08:12:43.598Z,8.17
2022-08-08T08:15:15.625Z,8.10
2022-08-08T08:17:49.160Z,7.20
2022-08-08T08:20:22.174Z,8.30
2022-08-08T08:22:57.233Z,8.80
2022-08-08T08:25:43.641Z,6.53
2022-08-08T08:28:10.737Z,6.83
2022-08-08T08:30:43.633Z,6.90
2022-08-08T08:33:12.744Z,6.70
2022-08-08T08:36:19.887Z,7.50
2022-08-08T08:38:27.284Z,7.40
2022-08-08T08:40:54.149Z,8.10
2022-08-08T08:43:26.837Z,6.40
2022-08-08T08:45:57.319Z,7.37
2022-08-08T08:48:24.848Z,7.37
2022-08-08T08:50:54.006Z,6.60
2022-08-08T08:53:55.441Z,8.77
2022-08-08T08:56:11.035Z,7.10
2022-08-08T08:58:46.899Z,6.50
2022-08-08T09:01:32.124Z,10.93
2022-08-08T09:04:31.306Z,6.70
2022-08-08T09:06:59.047Z,7.67
2022-08-08T09:09:40.172Z,7.23
2022-08-08T09:12:16.318Z,6.63
2022-08-08T09:14:44.931Z,7.27
2022-08-08T09:17:18.370Z,6.70
2022-08-08T09:22:02.632Z,5.20
2022-08-08T09:22:35.192Z,5.27
2022-08-08T09:25:04.104Z,6.23
2022-08-08T09:27:57.724Z,5.57
2022-08-08T09:30:19.823Z,6.10
2022-08-08T09:32:50.450Z,5.43
2022-08-08T09:35:37.229Z,5.27
2022-08-08T09:38:05.844Z,4.97
2022-08-08T09:40:45.550Z,5.63
2022-08-08T09:44:05.257Z,4.70
2022-08-08T09:46:25.604Z,5.27
2022-08-08T09:49:18.128Z,5.53
2022-08-08T09:52:07.035Z,5.90
2022-08-08T09:54:45.855Z,5.93
2022-08-08T09:57:19.132Z,5.33
2022-08-08T10:00:07.569Z,4.30
2022-08-08T10:02:45.298Z,4.90
2022-08-08T10:05:25.605Z,5.17
2022-08-08T10:08:00.068Z,4.95
2022-08-08T10:10:37.289Z,4.65
2022-08-08T10:13:32.467Z,4.40
2022-08-08T10:16:03.513Z,5.10
2022-08-08T10:18:33.723Z,4.45
2022-08-08T10:21:26.162Z,4.45
2022-08-08T10:23:59.794Z,4.85
2022-08-08T10:26:56.669Z,6.10
2022-08-08T10:29:23.215Z,4.72
2022-08-08T10:32:15.685Z,4.45
2022-08-08T10:34:57.119Z,4.43
2022-08-08T10:37:30.220Z,4.78
2022-08-08T10:39:58.710Z,5.50
2022-08-08T10:42:35.791Z,5.90
2022-08-08T10:45:09.713Z,4.78
2022-08-08T10:47:43.193Z,4.40
2022-08-08T10:50:10.987Z,4.35
2022-08-08T10:52:43.204Z,4.00
2022-08-08T10:55:41.585Z,4.57
2022-08-08T10:58:05.712Z,4.20
2022-08-08T11:00:35.669Z,4.38
2022-08-08T11:03:16.363Z,4.60
2022-08-08T11:05:51.791Z,3.83
2022-08-08T11:08:38.536Z,4.47
2022-08-08T11:11:31.931Z,3.90
2022-08-08T11:14:01.003Z,4.47
2022-08-08T11:16:32.362Z,6.70
2022-08-08T11:19:04.386Z,5.60
2022-08-08T11:21:41.017Z,4.40
2022-08-08T11:24:10.206Z,4.20
2022-08-08T11:26:57.006Z,4.00
2022-08-08T11:29:41.475Z,4.23
2022-08-08T11:32:13.381Z,4.63
2022-08-08T11:35:07.907Z,9.00
2022-08-08T11:38:37.029Z,4.50
2022-08-08T11:40:22.449Z,4.40
2022-08-08T11:42:55.259Z,4.57
2022-08-08T11:45:23.115Z,3.65
2022-08-08T11:48:02.393Z,4.57
2022-08-08T11:50:32.300Z,6.00
2022-08-08T11:53:00.822Z,4.45
2022-08-08T11:55:36.505Z,4.28
2022-08-08T11:58:14.888Z,4.03
2022-08-08T12:00:53.726Z,4.03
2022-08-08T12:03:24.866Z,4.57
2022-08-08T12:05:57.475Z,4.50
2022-08-08T12:08:34.527Z,4.47
2022-08-08T12:11:03.156Z,3.83
2022-08-08T12:13:37.682Z,3.50
2022-08-08T12:16:18.762Z,4.00
2022-08-08T12:18:54.836Z,4.60
2022-08-08T12:21:25.787Z,5.37
2022-08-08T12:24:11.521Z,3.30
2022-08-08T12:26:41.788Z,4.30
2022-08-08T12:29:21.335Z,4.23
2022-08-08T12:31:54.347Z,3.90
2022-08-08T12:34:36.148Z,4.20
2022-08-08T12:37:08.835Z,3.73
2022-08-08T12:40:00.675Z,3.57
2022-08-08T12:42:26.431Z,3.60
2022-08-08T12:45:59.156Z,4.50
2022-08-08T12:48:09.782Z,3.83
2022-08-08T12:50:46.847Z,4.33
2022-08-08T12:53:35.234Z,3.40
2022-08-08T12:56:17.622Z,3.63
2022-08-08T12:58:54.409Z,3.60
2022-08-08T13:01:36.801Z,3.23
2022-08-08T13:04:18.503Z,5.23
2022-08-08T13:06:53.808Z,3.37
2022-08-08T13:09:32.969Z,3.40
2022-08-08T13:12:26.893Z,3.80
2022-08-08T13:14:52.966Z,3.50
2022-08-08T13:18:08.335Z,3.43
2022-08-08T13:20:18.853Z,3.43
2022-08-08T13:22:46.314Z,3.30
2022-08-08T13:25:14.805Z,3.13
2022-08-08T13:27:41.956Z,3.80
2022-08-08T13:30:09.664Z,3.53
2022-08-08T13:32:39.646Z,2.83
2022-08-08T13:35:24.474Z,5.63
2022-08-08T13:38:08.193Z,3.47
2022-08-08T13:40:41.080Z,3.10
2022-08-08T13:43:08.416Z,4.13
2022-08-08T13:45:36.894Z,2.97
2022-08-08T13:48:11.812Z,3.00
2022-08-08T13:50:50.752Z,5.20
2022-08-08T13:53:34.153Z,3.57
2022-08-08T13:56:06.976Z,3.33
2022-08-08T13:58:57.481Z,3.90
2022-08-08T14:01:42.203Z,3.57
2022-08-08T14:04:21.367Z,3.63
2022-08-08T14:06:48.374Z,3.40
2022-08-08T14:09:24.469Z,4.30
2022-08-08T14:12:00.452Z,3.73
2022-08-08T14:14:46.874Z,4.73
2022-08-08T14:17:22.595Z,3.60
2022-08-08T14:20:07.623Z,5.87
2022-08-08T14:22:43.043Z,3.27
2022-08-08T14:25:15.319Z,3.87
2022-08-08T14:28:00.243Z,3.53
2022-08-08T14:30:34.107Z,3.80
2022-08-08T14:33:00.739Z,3.40
2022-08-08T14:35:35.224Z,3.80
2022-08-08T14:38:34.298Z,3.20
2022-08-08T14:40:59.392Z,4.17
2022-08-08T14:44:01.880Z,4.20
2022-08-08T14:46:32.665Z,4.20
2022-08-08T14:49:09.418Z,4.37
2022-08-08T14:51:53.246Z,3.67
2022-08-08T14:54:21.731Z,3.83
2022-08-08T14:56:56.224Z,4.20
2022-08-08T14:59:44.567Z,4.37
2022-08-08T15:02:10.357Z,3.13
2022-08-08T15:04:42.161Z,6.33
2022-08-08T15:07:22.625Z,5.27
2022-08-08T15:09:52.214Z,5.20
2022-08-08T15:12:27.095Z,4.13
2022-08-08T15:14:54.796Z,3.70
2022-08-08T15:17:22.237Z,4.27
2022-08-08T15:19:51.036Z,3.53
2022-08-08T15:22:23.617Z,3.87
2022-08-08T15:24:51.234Z,3.60
2022-08-08T15:28:05.249Z,4.03
2022-08-08T15:30:06.118Z,3.50
2022-08-08T15:32:39.069Z,4.23
2022-08-08T15:35:07.345Z,6.17
2022-08-08T15:37:34.491Z,4.03
2022-08-08T15:40:01.333Z,3.57
2022-08-08T15:42:41.879Z,5.93
2022-08-08T15:45:10.811Z,4.80
2022-08-08T15:47:37.342Z,3.63
2022-08-08T15:50:04.258Z,3.33
2022-08-08T15:52:34.884Z,3.60
2022-08-08T15:55:01.823Z,4.17
2022-08-08T15:57:35.236Z,3.43
2022-08-08T16:00:27.644Z,5.00
2022-08-08T16:02:55.555Z,3.63
2022-08-08T16:05:23.831Z,4.10
2022-08-08T16:07:53.818Z,3.57
2022-08-08T16:13:12.068Z,3.03
2022-08-08T16:13:27.643Z,6.63
2022-08-08T16:16:08.973Z,3.70
2022-08-08T16:18:36.865Z,3.43
2022-08-08T16:21:03.706Z,3.70
2022-08-08T16:23:47.075Z,3.50
2022-08-08T16:26:19.328Z,6.30
2022-08-08T16:28:49.677Z,4.50
2022-08-08T16:31:16.298Z,4.17
2022-08-08T16:33:57.947Z,3.30
2022-08-08T16:36:33.971Z,3.60
2022-08-08T16:39:01.674Z,5.43
2022-08-08T16:41:50.987Z,6.17
2022-08-08T16:44:27.833Z,4.00
2022-08-08T16:47:16.101Z,6.23
2022-08-08T16:49:42.741Z,3.83
2022-08-08T16:55:07.215Z,3.67
2022-08-08T16:55:54.480Z,3.30
2022-08-08T16:58:16.204Z,4.10
2022-08-08T17:00:32.291Z,4.73
2022-08-08T17:02:58.904Z,4.60
2022-08-08T17:05:31.178Z,3.37
2022-08-08T17:08:09.575Z,3.90
2022-08-08T17:10:36.254Z,6.63
2022-08-08T17:13:03.028Z,6.30
2022-08-08T17:15:34.620Z,8.20
2022-08-08T17:18:15.996Z,7.73
2022-08-08T17:20:42.840Z,4.30
2022-08-08T17:23:16.516Z,3.33
2022-08-08T17:25:52.207Z,9.47
2022-08-08T17:28:34.538Z,3.50
2022-08-08T17:31:44.615Z,3.27
2022-08-08T17:34:52.707Z,3.40
2022-08-08T17:36:55.489Z,3.73
2022-08-08T17:40:03.494Z,5.47
2022-08-08T17:42:14.395Z,4.50
2022-08-08T17:44:44.426Z,4.60
2022-08-08T17:47:24.173Z,3.73
2022-08-08T17:50:01.344Z,4.00
2022-08-08T17:52:35.426Z,3.37
2022-08-08T17:56:04.103Z,4.73
2022-08-08T17:57:51.871Z,4.30
2022-08-08T18:00:21.317Z,4.37
2022-08-08T18:03:07.622Z,7.80
2022-08-08T18:05:47.938Z,3.43
2022-08-08T18:08:25.157Z,3.90
2022-08-08T18:11:06.601Z,4.23
2022-08-08T18:13:34.986Z,3.97
2022-08-08T18:16:08.132Z,7.63
2022-08-08T18:18:39.313Z,7.10
2022-08-08T18:21:10.915Z,3.67
2022-08-08T18:23:56.375Z,3.87
2022-08-08T18:26:23.012Z,3.47
2022-08-08T18:28:54.179Z,5.47
2022-08-08T18:31:22.163Z,6.30
2022-08-08T18:34:25.674Z,4.13
2022-08-08T18:36:37.076Z,3.30
2022-08-08T18:39:04.741Z,4.27
2022-08-08T18:41:51.528Z,4.03
2022-08-08T18:44:19.248Z,4.60
2022-08-08T18:46:55.737Z,5.43
2022-08-08T18:49:32.543Z,3.03
2022-08-08T18:52:18.325Z,3.70
2022-08-08T18:54:45.500Z,5.90
2022-08-08T18:57:28.110Z,5.13
2022-08-08T19:00:02.619Z,3.93
2022-08-08T19:02:30.060Z,5.23
2022-08-08T19:04:56.701Z,4.10
2022-08-08T19:07:29.930Z,3.70
2022-08-08T19:10:14.760Z,4.07
2022-08-08T19:12:44.631Z,4.13
2022-08-08T19:15:21.606Z,3.67
2022-08-08T19:18:31.904Z,4.63
2022-08-08T19:20:39.130Z,4.27
2022-08-08T19:23:08.570Z,5.83
2022-08-08T19:26:02.517Z,3.27
2022-08-08T19:28:23.961Z,7.20
2022-08-08T19:31:04.281Z,3.87
2022-08-08T19:33:52.300Z,3.83
2022-08-08T19:36:27.692Z,3.30
2022-08-08T19:38:55.658Z,4.40
2022-08-08T19:41:25.400Z,4.23
2022-08-08T19:44:02.422Z,3.80
2022-08-08T19:46:33.278Z,4.47
2022-08-08T19:49:01.032Z,3.73
2022-08-08T19:51:34.507Z,9.67
2022-08-08T19:54:06.093Z,4.47
2022-08-08T19:56:39.846Z,5.67
2022-08-08T19:59:08.964Z,3.23
2022-08-08T20:02:01.543Z,5.23
2022-08-08T20:04:23.941Z,3.90
2022-08-08T20:06:50.841Z,6.47
2022-08-08T20:09:22.767Z,4.20
2022-08-08T20:11:50.101Z,3.83
2022-08-08T20:14:33.870Z,4.13
2022-08-08T20:17:03.009Z,3.33
2022-08-08T20:19:34.406Z,3.83
2022-08-08T20:22:13.135Z,4.10
2022-08-08T20:24:48.346Z,4.00
2022-08-08T20:27:33.068Z,3.60
2022-08-08T20:30:01.787Z,5.40
2022-08-08T20:32:29.884Z,4.40
2022-08-08T20:35:01.571Z,3.70
2022-08-08T20:37:37.072Z,3.90
2022-08-08T20:40:17.058Z,3.80
2022-08-08T20:42:55.040Z,4.30
2022-08-08T20:45:55.154Z,3.93
2022-08-08T20:48:08.746Z,4.27
2022-08-08T20:50:35.420Z,4.93
2022-08-08T20:53:16.555Z,4.30
2022-08-08T20:55:51.344Z,5.57
2022-08-08T20:58:22.919Z,3.50
2022-08-08T21:00:50.425Z,3.70
2022-08-08T21:03:17.353Z,3.90
2022-08-08T21:05:59.164Z,4.70
2022-08-08T21:08:37.233Z,3.73
2022-08-08T21:11:12.953Z,5.10
2022-08-08T21:13:40.776Z,3.67
2022-08-08T21:16:18.128Z,3.03
2022-08-08T21:18:57.561Z,6.50
2022-08-08T21:21:39.783Z,3.67
2022-08-08T21:24:19.262Z,4.83
2022-08-08T21:26:54.000Z,3.43
2022-08-08T21:29:21.580Z,4.00
2022-08-08T21:31:53.337Z,3.87
2022-08-08T21:34:25.414Z,3.00
2022-08-08T21:36:58.522Z,3.03
2022-08-08T21:39:41.385Z,3.43
2022-08-08T21:42:11.983Z,5.00
2022-08-08T21:44:38.615Z,3.77
2022-08-08T21:48:07.781Z,3.30
2022-08-08T21:50:12.252Z,3.47
2022-08-08T21:54:34.725Z,5.93
2022-08-08T21:56:20.262Z,3.60
2022-08-08T21:58:13.619Z,5.67
2022-08-08T22:00:41.121Z,4.13
2022-08-08T22:03:07.732Z,3.30
2022-08-08T22:05:41.631Z,3.23
2022-08-08T22:08:08.471Z,3.93
2022-08-08T22:10:35.555Z,5.10
2022-08-08T22:13:17.533Z,4.30
2022-08-08T22:15:58.976Z,3.90
2022-08-08T22:18:31.871Z,3.00
2022-08-08T22:21:14.032Z,6.83
2022-08-08T22:23:51.428Z,4.77
2022-08-08T22:26:29.219Z,2.77
2022-08-08T22:29:13.425Z,2.50
2022-08-08T22:31:58.391Z,4.07
2022-08-08T22:34:28.870Z,3.43
2022-08-08T22:36:55.418Z,3.37
2022-08-08T22:39:22.063Z,4.30
2022-08-08T22:41:54.971Z,4.30
2022-08-08T22:44:24.249Z,2.40
2022-08-08T22:46:52.044Z,2.20
2022-08-08T22:49:20.192Z,3.00
2022-08-08T22:51:47.774Z,2.80
2022-08-08T22:54:31.460Z,6.30
2022-08-08T22:57:02.339Z,2.40
2022-08-08T22:59:48.389Z,2.60
2022-08-08T23:02:25.750Z,2.10
2022-08-08T23:04:58.484Z,2.40
2022-08-08T23:07:51.704Z,3.80
2022-08-08T23:10:19.844Z,3.90
2022-08-08T23:12:48.619Z,3.23
2022-08-08T23:16:39.287Z,4.87
2022-08-08T23:18:07.717Z,2.50
2022-08-08T23:20:34.250Z,3.00
2022-08-08T23:23:03.896Z,2.27
2022-08-08T23:25:30.614Z,4.70
2022-08-08T23:28:04.308Z,3.57
2022-08-08T23:30:30.865Z,2.47
2022-08-08T23:32:57.437Z,4.00
2022-08-08T23:35:26.542Z,2.40
2022-08-08T23:38:03.682Z,3.63
2022-08-08T23:40:31.124Z,3.33
2022-08-08T23:42:58.006Z,3.90
2022-08-08T23:49:06.560Z,2.50
2022-08-08T23:49:07.772Z,2.30
2022-08-08T23:51:02.664Z,3.37
2022-08-08T23:54:01.378Z,3.17
2022-08-08T23:56:32.098Z,2.60
2022-08-08T23:58:59.598Z,3.30
